Terminal Aerodrome Forecast
Issued by NWS

Home | Current Version | Previous Version | Text Only | Print | Product List | Glossary Off
Versions: 1 2 3 4 5 6 7 8 9 10 11 12 13 14 15 16 17 18 19 20

000
FTUS43 KTOP 231600 AAA
TAFFOE
TAF AMD
KFOE 231648Z 2317/2412 15015G23KT P6SM VCSH OVC100
     FM232000 17021G30KT P6SM SCT150
     FM240900 20012KT 3SM TSRA OVC012CB=

USA.gov is the U.S. government's official web portal to all federal, state and local government web resources and services.